Home > Products > Valid Products > TAF

000
FTUS41 KPHI 310800 AAA
TAFPHL
TAF AMD
KPHL 310842Z 3109/0112 VRB04KT P6SM FEW200
     FM311500 23009KT P6SM SCT050
     FM311900 23011KT P6SM BKN050
     FM010000 19006KT P6SM FEW060 BKN200=



000
FTUS41 KPHI 310500
TAFABE
TAF
KABE 310520Z 3106/0106 VRB03KT P6SM SCT060 BKN150
     FM311400 21009KT P6SM SCT050
     FM311700 24010KT P6SM VCSH BKN050
     FM312200 VRB05KT P6SM SCT060 BKN200=



000
FTUS41 KPHI 310500
TAFMIV
TAF
KMIV 310520Z 3106/0106 VRB03KT P6SM SCT080
     FM311500 22007KT P6SM SCT050
     FM312200 VRB04KT P6SM FEW060 BKN200=



000
FTUS41 KPHI 310500
TAFACY
TAF
KACY 310520Z 3106/0106 VRB02KT P6SM SCT080
     FM311500 21009KT P6SM SCT050
     FM010000 17005KT P6SM FEW060 BKN200=



000
FTUS41 KPHI 310500
TAFRDG
TAF
KRDG 310520Z 3106/0106 VRB03KT P6SM SCT060 BKN150
     FM311400 24009KT P6SM SCT050
     FM010000 VRB02KT P6SM SCT060 BKN200=



000
FTUS41 KPHI 310500
TAFILG
TAF
KILG 310520Z 3106/0106 VRB04KT P6SM FEW150
     FM311500 22011KT P6SM SCT050
     FM010000 18005KT P6SM FEW060 BKN200=



000
FTUS41 KPHI 310500
TAFPNE
TAF
KPNE 310520Z 3106/0106 VRB03KT P6SM SCT150
     FM311500 23006KT P6SM SCT050
     FM311900 23010KT P6SM VCSH BKN050
     FM010000 19005KT P6SM FEW060 BKN200=



000
FTUS41 KPHI 310500
TAFTTN
TAF
KTTN 310520Z 3106/0106 VRB02KT P6SM SCT150
     FM311500 24008KT P6SM SCT050
     FM311800 25010KT P6SM VCSH BKN050
     FM312300 21003KT P6SM FEW060 BKN200=



000
FTUS41 KPHI 310500
TAFPHL
TAF
KPHL 310520Z 3106/0112 20004KT P6SM FEW150
     FM311500 23009KT P6SM SCT050
     FM311900 23011KT P6SM BKN050
     FM010000 19006KT P6SM FEW060 BKN200=



000
FTUS41 KPHI 302300
TAFMIV
TAF
KMIV 302322Z 3100/3124 21005KT P6SM SKC
     FM310500 VRB03KT P6SM SCT080
     FM311500 22007KT P6SM SCT050
     FM312000 22010KT P6SM BKN050=



000
FTUS41 KPHI 302300
TAFPHL
TAF
KPHL 302322Z 3100/0106 23008KT P6SM FEW070
     FM310300 20004KT P6SM SCT070
     FM311500 23008KT P6SM SCT050
     FM311800 23012KT P6SM BKN050=



000
FTUS41 KPHI 302300
TAFPNE
TAF
KPNE 302322Z 3100/3124 27006KT P6SM FEW070
     FM310300 20004KT P6SM SCT070
     FM311500 23008KT P6SM SCT050
     FM311800 23010KT P6SM BKN050=



000
FTUS41 KPHI 302300
TAFRDG
TAF
KRDG 302322Z 3100/3124 24005KT P6SM FEW050
     FM310200 VRB03KT P6SM SCT060 BKN150
     FM311400 22008KT P6SM SCT050
     FM311700 25010KT P6SM BKN050=



000
FTUS41 KPHI 302300
TAFACY
TAF
KACY 302322Z 3100/3124 22005KT P6SM SKC
     FM310500 19003KT P6SM SCT080
     FM311500 22012KT P6SM SCT050=



000
FTUS41 KPHI 302300
TAFILG
TAF
KILG 302322Z 3100/3124 22008KT P6SM FEW070
     FM310300 19004KT P6SM SCT070
     FM311500 22008KT P6SM SCT050
     FM311800 22012KT P6SM BKN050=



000
FTUS41 KPHI 302300
TAFABE
TAF
KABE 302322Z 3100/3124 24006KT P6SM FEW050
     FM310200 VRB03KT P6SM SCT060 BKN150
     FM311400 22008KT P6SM SCT050
     FM311700 24010KT P6SM BKN050=



000
FTUS41 KPHI 302300
TAFTTN
TAF
KTTN 302322Z 3100/3124 26004KT P6SM FEW070
     FM310300 VRB02KT P6SM SCT070
     FM311500 24008KT P6SM SCT050
     FM311800 27010KT P6SM BKN050=



000
FTUS41 KPHI 302000 AAA
TAFPHL
TAF AMD
KPHL 302038Z 3021/3124 24008KT P6SM SCT060
     FM310000 23006KT P6SM FEW060
     FM310300 20004KT P6SM SCT060
     FM311500 24010KT P6SM SCT050=



000
FTUS41 KPHI 302000 AAA
TAFMIV
TAF AMD
KMIV 302000Z 3020/3118 26008KT P6SM SCT060
     FM302300 VRB03KT P6SM FEW060
     FM311500 24006KT P6SM FEW050=



000
FTUS41 KPHI 301700
TAFPNE
TAF
KPNE 301738Z 3018/3118 28006KT P6SM SCT060
     FM310000 23003KT P6SM FEW060
     FM311500 24007KT P6SM SCT050=



000
FTUS41 KPHI 301700
TAFILG
TAF
KILG 301738Z 3018/3118 24006KT P6SM SCT060
     FM310000 21004KT P6SM FEW060
     FM311500 23009KT P6SM SCT050=



000
FTUS41 KPHI 301700
TAFPHL
TAF
KPHL 301738Z 3018/3124 23008KT P6SM SCT060
     FM310000 22006KT P6SM SCT060
     FM311500 24010KT P6SM SCT050=



000
FTUS41 KPHI 301700
TAFRDG
TAF
KRDG 301738Z 3018/3118 21006KT P6SM SCT045
     FM310000 00000KT P6SM SCT060
      TEMPO 3104/3108 -SHRA BKN060
     FM311500 26007KT P6SM SCT050=



000
FTUS41 KPHI 301700
TAFABE
TAF
KABE 301738Z 3018/3118 22007KT P6SM SCT050
     FM310000 21003KT P6SM FEW060
      TEMPO 3106/3110 BKN060
     FM311500 24007KT P6SM SCT050
      TEMPO 3116/3118 BKN050=



000
FTUS41 KPHI 301700
TAFACY
TAF
KACY 301738Z 3018/3118 25007KT P6SM SCT060
      TEMPO 3018/3019 BKN060
     FM302000 19008KT P6SM SCT060
     FM302300 21003KT P6SM FEW250
     FM311500 23008KT P6SM FEW060=



000
FTUS41 KPHI 301700
TAFTTN
TAF
KTTN 301738Z 3018/3118 27010KT P6SM SCT060
     FM310000 21003KT P6SM SCT060
     FM311500 24007KT P6SM SCT050=



000
FTUS41 KPHI 301700
TAFMIV
TAF
KMIV 301738Z 3018/3118 00000KT P6SM FEW060
     FM302300 00000KT P6SM FEW250
     FM311500 24006KT P6SM FEW050=



000
FTUS41 KPHI 301500 AAA
TAFPHL
TAF AMD
KPHL 301501Z 3015/3118 VRB03KT P6SM FEW050
     FM310000 22006KT P6SM FEW050=



000
FTUS41 KPHI 301100
TAFTTN
TAF
KTTN 301128Z 3012/3112 VRB03KT P6SM SCT080
     FM301500 29006KT P6SM SCT050
     FM310000 VRB03KT P6SM FEW050=



000
FTUS41 KPHI 301100
TAFABE
TAF
KABE 301128Z 3012/3112 VRB03KT P6SM FEW080
     FM301500 25006KT P6SM SCT050
     FM310000 VRB03KT P6SM SCT070=



000
FTUS41 KPHI 301100
TAFRDG
TAF
KRDG 301128Z 3012/3112 VRB03KT P6SM FEW080
     FM301400 27006KT P6SM SCT050
     FM310000 VRB02KT P6SM SCT070=



000
FTUS41 KPHI 301100
TAFPHL
TAF
KPHL 301128Z 3012/3118 34004KT P6SM SCT080
     FM301500 26008KT P6SM SCT050
     FM310000 22006KT P6SM FEW050=



000
FTUS41 KPHI 301100
TAFPNE
TAF
KPNE 301128Z 3012/3112 VRB03KT P6SM SCT080
     FM301500 28006KT P6SM SCT050
     FM310000 23006KT P6SM FEW050=



000
FTUS41 KPHI 301100
TAFILG
TAF
KILG 301128Z 3012/3112 31004KT P6SM SCT080
     FM301600 25006KT P6SM SCT050
     FM310000 21004KT P6SM FEW050=



000
FTUS41 KPHI 301100
TAFACY
TAF
KACY 301128Z 3012/3112 32005KT P6SM SCT050
     FM301800 22006KT P6SM SCT050
     FM310100 VRB02KT P6SM FEW050=



000
FTUS41 KPHI 301100
TAFMIV
TAF
KMIV 301128Z 3012/3112 VRB03KT P6SM SCT080
     FM301600 27006KT P6SM SCT050
     FM302300 VRB02KT P6SM FEW050=



000
FTUS41 KPHI 301000 AAA
TAFRDG
TAF AMD
KRDG 301011Z 3010/3106 VRB03KT P6SM SCT080
      TEMPO 3010/3012 5SM BR
     FM301400 27006KT P6SM SCT050
     FM310000 VRB02KT P6SM SCT070=



000
FTUS41 KPHI 300800 AAA
TAFPHL
TAF AMD
KPHL 300832Z 3009/3112 32004KT P6SM SCT090
     FM301500 26008KT P6SM SCT050
     FM310000 22006KT P6SM FEW050=



000
FTUS41 KPHI 300500
TAFPHL
TAF
KPHL 300520Z 3006/3112 32004KT P6SM SCT090
     FM301400 26008KT P6SM SCT050
     FM302200 22006KT P6SM FEW050=



000
FTUS41 KPHI 300500
TAFRDG
TAF
KRDG 300520Z 3006/3106 VRB03KT P6SM SCT080
     FM301400 27006KT P6SM SCT050
     FM310000 VRB02KT P6SM SCT070=



000
FTUS41 KPHI 300500
TAFMIV
TAF
KMIV 300520Z 3006/3106 VRB02KT P6SM SCT080
     FM301400 27006KT P6SM SCT050
     FM302200 VRB02KT P6SM FEW050=



000
FTUS41 KPHI 300500
TAFACY
TAF
KACY 300520Z 3006/3106 VRB03KT P6SM SCT080
     FM301400 31006KT P6SM SCT050
     FM301800 22006KT P6SM SCT050
     FM310100 VRB02KT P6SM FEW050=



000
FTUS41 KPHI 300500
TAFILG
TAF
KILG 300520Z 3006/3106 VRB03KT P6SM SCT090
     FM301400 25006KT P6SM SCT050
     FM310000 VRB04KT P6SM FEW050=



000
FTUS41 KPHI 300500
TAFABE
TAF
KABE 300520Z 3006/3106 VRB03KT P6SM SCT080
     FM301400 25006KT P6SM SCT050
     FM310000 VRB03KT P6SM FEW070=



000
FTUS41 KPHI 300500
TAFTTN
TAF
KTTN 300520Z 3006/3106 VRB03KT P6SM SCT080
     FM301400 29006KT P6SM SCT050
     FM310000 VRB03KT P6SM SKC=



000
FTUS41 KPHI 300500
TAFPNE
TAF
KPNE 300520Z 3006/3106 VRB03KT P6SM SCT090
     FM301400 28006KT P6SM SCT050
     FM302200 23006KT P6SM FEW050=



000
FTUS41 KPHI 292300
TAFMIV
TAF
KMIV 292321Z 3000/3024 VRB03KT P6SM BKN080
     FM300200 VRB03KT P6SM SCT080
     FM301400 27006KT P6SM SCT050
     FM302200 VRB03KT P6SM SCT050=



000
FTUS41 KPHI 292300
TAFPNE
TAF
KPNE 292321Z 3000/3024 VRB03KT P6SM BKN080
     FM300300 VRB03KT P6SM SCT080
     FM301400 27006KT P6SM SCT050
     FM302200 23006KT P6SM SCT050=



000
FTUS41 KPHI 292300
TAFILG
TAF
KILG 292321Z 3000/3024 29004KT P6SM BKN080
     FM300200 VRB03KT P6SM SCT080
     FM301400 25006KT P6SM SCT050
     FM302200 21006KT P6SM SCT050=



000
FTUS41 KPHI 292300
TAFABE
TAF
KABE 292321Z 3000/3024 VRB03KT P6SM BKN080
     FM300500 VRB03KT P6SM SCT080
     FM301400 25006KT P6SM SCT050=



000
FTUS41 KPHI 292300
TAFPHL
TAF
KPHL 292321Z 3000/3106 29006KT P6SM BKN080
     FM300300 27004KT P6SM SCT080
     FM301400 26008KT P6SM SCT050
     FM302200 22006KT P6SM SCT050=



000
FTUS41 KPHI 292300
TAFACY
TAF
KACY 292321Z 3000/3024 VRB03KT P6SM BKN080
     FM300200 VRB03KT P6SM SCT080
     FM301400 27006KT P6SM SCT050
     FM301800 23006KT P6SM SCT050=



000
FTUS41 KPHI 292300
TAFTTN
TAF
KTTN 292321Z 3000/3024 VRB03KT P6SM BKN080
     FM300400 VRB03KT P6SM SCT080
     FM301400 27006KT P6SM SCT050=



000
FTUS41 KPHI 292300
TAFRDG
TAF
KRDG 292321Z 3000/3024 VRB03KT P6SM BKN080
     FM300400 VRB03KT P6SM SCT080
     FM301400 27006KT P6SM SCT050=



000
FTUS41 KPHI 292100 AAA
TAFACY
TAF AMD
KACY 292103Z 2921/3018 29006KT P6SM SCT050 BKN080
     FM300000 21006KT P6SM SCT050
     FM300300 00000KT P6SM SKC
     FM301400 28006KT P6SM SCT050=



000
FTUS41 KPHI 292100 AAA
TAFPHL
TAF AMD
KPHL 292101Z 2921/3024 28006KT P6SM SCT050 BKN080
     FM300000 28006KT P6SM SCT050
     FM301400 26008KT P6SM SCT050=



000
FTUS41 KPHI 291700
TAFRDG
TAF
KRDG 291736Z 2918/3018 31007KT P6SM SCT050 BKN070
     FM300400 00000KT P6SM SKC
     FM301400 28005KT P6SM SCT050=



000
FTUS41 KPHI 291700
TAFABE
TAF
KABE 291736Z 2918/3018 30009KT P6SM SCT040 BKN060
     FM300200 00000KT P6SM SKC
     FM301400 26005KT P6SM SCT050=



000
FTUS41 KPHI 291700
TAFMIV
TAF
KMIV 291736Z 2918/3018 30005KT P6SM SCT040 BKN070
     FM300000 00000KT P6SM SKC
     FM301400 28006KT P6SM SCT050=



000
FTUS41 KPHI 291700
TAFTTN
TAF
KTTN 291736Z 2918/3018 31007KT P6SM SCT040 BKN070
     FM300400 00000KT P6SM SKC
     FM301400 30005KT P6SM SCT050=



000
FTUS41 KPHI 291700
TAFILG
TAF
KILG 291736Z 2918/3018 30007KT P6SM SCT045 BKN060
     FM300100 VRB03KT P6SM SKC
     FM301400 27006KT P6SM SCT050=



000
FTUS41 KPHI 291700
TAFACY
TAF
KACY 291736Z 2918/3018 29007KT P6SM FEW045 BKN070
     FM292100 21007KT P6SM SCT050
     FM300300 00000KT P6SM SKC
     FM301400 28006KT P6SM SCT050=



000
FTUS41 KPHI 291700
TAFPHL
TAF
KPHL 291736Z 2918/3024 32009KT P6SM SCT050 BKN070
     FM292200 28006KT P6SM SCT050
     FM301400 26008KT P6SM SCT050=



000
FTUS41 KPHI 291700
TAFPNE
TAF
KPNE 291736Z 2918/3018 32008KT P6SM SCT045 BKN070
     FM300200 VRB03KT P6SM SKC
     FM301400 28005KT P6SM SCT050=



000
FTUS41 KPHI 291500 AAA
TAFPHL
TAF AMD
KPHL 291534Z 2916/3018 32008KT P6SM FEW035 SCT080
     FM291800 27011KT P6SM SCT050
     FM300000 28005KT P6SM SKC=



000
FTUS41 KPHI 291500 AAB
TAFABE
TAF AMD
KABE 291523Z 2915/3012 33008KT P6SM SCT035
     FM292000 29006KT P6SM SCT050
     FM300200 VRB02KT P6SM SKC=



000
FTUS41 KPHI 291400 AAA
TAFABE
TAF AMD
KABE 291403Z 2914/3012 28005KT P6SM FEW027
      TEMPO 2914/2916 BKN027
     FM291600 28006KT P6SM SCT050
     FM300200 VRB02KT P6SM SKC=



000
FTUS41 KPHI 291100
TAFABE
TAF
KABE 291131Z 2912/3012 25005KT P6SM FEW025
     FM291600 28006KT P6SM SCT050
     FM300200 VRB02KT P6SM SKC=



000
FTUS41 KPHI 291100
TAFPHL
TAF
KPHL 291131Z 2912/3018 31006KT P6SM FEW200
     FM291600 27011KT P6SM SCT050
     FM300000 28005KT P6SM SKC=



000
FTUS41 KPHI 291100
TAFMIV
TAF
KMIV 291131Z 2912/3012 29004KT P6SM SKC
     FM291600 27006KT P6SM SCT050
     FM300000 VRB01KT P6SM SKC=



000
FTUS41 KPHI 291100
TAFILG
TAF
KILG 291131Z 2912/3012 31005KT P6SM FEW200
     FM291600 28009KT P6SM SCT050
     FM300200 29004KT P6SM SKC=



000
FTUS41 KPHI 291100
TAFPNE
TAF
KPNE 291131Z 2912/3012 31005KT P6SM FEW200
     FM291600 28008KT P6SM SCT050
     FM300200 VRB02KT P6SM SKC=



000
FTUS41 KPHI 291100
TAFACY
TAF
KACY 291131Z 2912/3012 30004KT P6SM SKC
     FM291600 27007KT P6SM SCT050
     FM291900 15008KT P6SM SCT050
     FM300100 VRB01KT P6SM SKC=



000
FTUS41 KPHI 291100
TAFRDG
TAF
KRDG 291131Z 2912/3012 30004KT P6SM FEW030
     FM291600 28006KT P6SM SCT050
     FM300200 VRB02KT P6SM SKC=



000
FTUS41 KPHI 291100
TAFTTN
TAF
KTTN 291131Z 2912/3012 29004KT P6SM FEW200
     FM291600 28006KT P6SM SCT050
     FM300200 VRB02KT P6SM SKC=



000
FTUS41 KPHI 290900 AAA
TAFRDG
TAF AMD
KRDG 290944Z 2910/3006 31008KT P6SM FEW030
      TEMPO 2910/2913 BKN030
     FM291600 28006KT P6SM SCT050=



000
FTUS41 KPHI 290800 AAA
TAFPHL
TAF AMD
KPHL 290832Z 2909/3012 31006KT P6SM SKC
     FM291600 27011KT P6SM SCT050
     FM300000 27003KT P6SM SKC=



000
FTUS41 KPHI 290500
TAFTTN
TAF
KTTN 290520Z 2906/3006 31006KT P6SM FEW100
     FM291600 28006KT P6SM SCT050=



000
FTUS41 KPHI 290500
TAFILG
TAF
KILG 290520Z 2906/3006 31011KT P6SM FEW100
     FM291600 28009KT P6SM SCT050=



000
FTUS41 KPHI 290500
TAFABE
TAF
KABE 290520Z 2906/3006 30006KT P6SM FEW100
     FM291600 28006KT P6SM SCT050=



000
FTUS41 KPHI 290500
TAFACY
TAF
KACY 290520Z 2906/3006 31010KT P6SM FEW100
     FM291600 27007KT P6SM SCT050
     FM291900 15008KT P6SM SCT050
     FM300100 VRB03KT P6SM SKC=



000
FTUS41 KPHI 290500
TAFMIV
TAF
KMIV 290520Z 2906/3006 30007KT P6SM FEW100
     FM291600 27006KT P6SM SCT050
     FM300000 VRB02KT P6SM SKC=



000
FTUS41 KPHI 290500
TAFRDG
TAF
KRDG 290520Z 2906/3006 31008KT P6SM FEW100
     FM291600 28006KT P6SM SCT050=



000
FTUS41 KPHI 290500
TAFPNE
TAF
KPNE 290520Z 2906/3006 31006KT P6SM FEW100
     FM291600 28008KT P6SM SCT050=



000
FTUS41 KPHI 290500
TAFPHL
TAF
KPHL 290520Z 2906/3012 31011KT P6SM FEW100
     FM291600 27011KT P6SM SCT050
     FM300000 27003KT P6SM SKC=



000
FTUS41 KPHI 290300 AAA
TAFABE
TAF AMD
KABE 290310Z 2903/2924 30011KT P6SM BKN050
     FM290600 29004KT P6SM SCT050
     FM291600 26006KT P6SM SCT050=



000
FTUS41 KPHI 282300
TAFTTN
TAF
KTTN 282322Z 2900/2924 30010KT P6SM BKN050
      TEMPO 2900/2901 -SHRA OVC035
     FM290200 32008KT P6SM SCT050 BKN100
     FM290600 32004KT P6SM SCT050
     FM291600 28006KT P6SM SCT050=



000
FTUS41 KPHI 282300
TAFPHL
TAF
KPHL 282322Z 2900/3006 30012G20KT P6SM BKN050
      TEMPO 2900/2901 -SHRA OVC035
     FM290200 30012KT P6SM SCT050 BKN100
     FM290600 30008KT P6SM SCT050
     FM291600 27008KT P6SM SCT050=



000
FTUS41 KPHI 282300
TAFRDG
TAF
KRDG 282322Z 2900/2924 30008KT P6SM BKN050
      TEMPO 2900/2901 -SHRA OVC035
     FM290600 31004KT P6SM SCT050
     FM291600 28006KT P6SM SCT050=



000
FTUS41 KPHI 282300
TAFABE
TAF
KABE 282322Z 2900/2924 29008KT P6SM BKN050
     FM290600 29004KT P6SM SCT050
     FM291600 26006KT P6SM SCT050=



000
FTUS41 KPHI 282300
TAFMIV
TAF
KMIV 282322Z 2900/2924 27008G16KT P6SM SCT050
     FM290200 30008KT P6SM SCT050 BKN100
     FM290600 30004KT P6SM SCT050
     FM291600 27006KT P6SM SCT050=



000
FTUS41 KPHI 282300
TAFPNE
TAF
KPNE 282322Z 2900/2924 30010G18KT P6SM BKN050
      TEMPO 2900/2901 -SHRA OVC035
     FM290200 31010KT P6SM SCT050 BKN100
     FM290600 31006KT P6SM SCT050
     FM291600 28006KT P6SM SCT050=



000
FTUS41 KPHI 282300
TAFACY
TAF
KACY 282322Z 2900/2924 28010G18KT P6SM SCT050
     FM290200 30010KT P6SM SCT050 BKN100
     FM290600 31006KT P6SM SCT050
     FM291700 15008KT P6SM SCT050=



000
FTUS41 KPHI 282300
TAFILG
TAF
KILG 282322Z 2900/2924 29012G20KT P6SM BKN050
      TEMPO 2900/2901 -SHRA OVC035
     FM290200 30010KT P6SM SCT050 BKN100
     FM290600 30006KT P6SM SCT050
     FM291600 27008KT P6SM SCT050=



000
FTUS41 KPHI 282100 AAB
TAFPHL
TAF AMD
KPHL 282144Z 2822/2924 27014G24KT P6SM SCT050 BKN100
     FM282300 29012G20KT P6SM SCT045 BKN120
      TEMPO 2823/2901 -SHRA OVC045
     FM290200 30012KT P6SM SCT045 BKN120
     FM290400 30008KT P6SM SCT200
     FM291500 29008KT P6SM SCT050=



000
FTUS41 KPHI 282100 AAB
TAFABE
TAF AMD
KABE 282107Z 2821/2918 28012G22KT P6SM SCT035 BKN070
      TEMPO 2821/2823 5SM SHRA BR OVC035
     FM282300 31010KT P6SM SCT045 BKN100
     FM290400 30004KT P6SM SCT200
     FM291500 30006KT P6SM SCT050=



000
FTUS41 KPHI 282100 AAB
TAFRDG
TAF AMD
KRDG 282107Z 2821/2918 29012G22KT P6SM SCT035 BKN070
      TEMPO 2821/2823 5SM SHRA BR OVC035
     FM282300 31010KT P6SM SCT045 BKN100
     FM290400 30004KT P6SM SCT200
     FM291500 31006KT P6SM SCT050=



000
FTUS41 KPHI 282100 AAA
TAFACY
TAF AMD
KACY 282104Z 2821/2918 26014G22KT P6SM SCT050 BKN100
     FM290000 29010KT P6SM SCT150
     FM290600 30006KT P6SM SCT200
     FM291500 31008KT P6SM BKN100=



000
FTUS41 KPHI 282100 AAA
TAFMIV
TAF AMD
KMIV 282104Z 2821/2918 26014G22KT P6SM SCT050 BKN100
     FM290000 27010KT P6SM SCT150
     FM290400 30006KT P6SM SCT200
     FM291500 31006KT P6SM BKN100=



000
FTUS41 KPHI 282100 AAA
TAFPNE
TAF AMD
KPNE 282103Z 2821/2918 27014G24KT P6SM SCT050 BKN080
     FM282300 30012KT P6SM SCT045 BKN120
      TEMPO 2823/2901 -SHRA OVC045
     FM290400 31008KT P6SM SCT200
     FM291500 31006KT P6SM SCT050=



000
FTUS41 KPHI 282100 AAA
TAFTTN
TAF AMD
KTTN 282103Z 2821/2918 28012G24KT P6SM SCT050 BKN080
     FM282300 30010KT P6SM SCT045 BKN120
      TEMPO 2823/2901 -SHRA OVC045
     FM290700 31004KT P6SM SCT200
     FM291500 32006KT P6SM SCT050=



000
FTUS41 KPHI 282100 AAA
TAFPHL
TAF AMD
KPHL 282101Z 2821/2924 27015G25KT P6SM SCT050 BKN100
     FM282300 29012G20KT P6SM SCT045 BKN120
      TEMPO 2823/2901 -SHRA OVC045
     FM290400 30008KT P6SM SCT200
     FM291500 29008KT P6SM SCT050=



000
FTUS41 KPHI 282100 AAA
TAFILG
TAF AMD
KILG 282101Z 2821/2918 27015G25KT P6SM SCT050 BKN100
     FM282300 30012G20KT P6SM SCT045 BKN120
      TEMPO 2823/2901 -SHRA OVC045
     FM290200 30008KT P6SM SCT200
     FM291500 30008KT P6SM SCT050=



000
FTUS41 KPHI 281900 AAA
TAFABE
TAF AMD
KABE 281901Z 2819/2918 27013G23KT P6SM -SHRA SCT040 BKN050
      TEMPO 2821/2823 5SM TSRA BKN035CB
     FM290000 31010KT P6SM SCT040 BKN100
     FM290400 30005KT P6SM SCT200
     FM291500 30005KT P6SM SCT050=



000
FTUS41 KPHI 281900 AAA
TAFRDG
TAF AMD
KRDG 281901Z 2819/2918 28015G23KT P6SM -SHRA SCT020 BKN070
      TEMPO 2821/2823 5SM TSRA BKN035CB
     FM290000 31010KT P6SM SCT045 BKN100
     FM290400 30003KT P6SM SCT200
     FM291500 31006KT P6SM SCT050=



000
FTUS41 KPHI 281700
TAFILG
TAF
KILG 281731Z 2818/2918 28015G25KT P6SM SCT035 BKN110
      TEMPO 2819/2823 -SHRA BKN035
     FM290000 30012G20KT P6SM SCT045 BKN120
     FM290200 30008KT P6SM SCT200
     FM291500 30008KT P6SM SCT050=



000
FTUS41 KPHI 281700
TAFTTN
TAF
KTTN 281731Z 2818/2918 28013G23KT P6SM SCT035 BKN045
      TEMPO 2819/2823 -SHRA BKN035
     FM290000 30010KT P6SM SCT045 BKN120
     FM290700 31004KT P6SM SCT200
     FM291500 32005KT P6SM SCT050=



000
FTUS41 KPHI 281700
TAFACY
TAF
KACY 281731Z 2818/2918 26016G25KT P6SM SCT040 BKN050
     FM290000 29010KT P6SM SCT150
     FM290600 30005KT P6SM SCT200
     FM291500 31007KT P6SM BKN100=



000
FTUS41 KPHI 281700
TAFPHL
TAF
KPHL 281731Z 2818/2924 28015G25KT P6SM SCT040 BKN090
      TEMPO 2820/2824 -SHRA BKN035
     FM290000 29012G20KT P6SM SCT045 BKN120
     FM290400 30008KT P6SM SCT200
     FM291500 29008KT P6SM SCT050=



000
FTUS41 KPHI 281700
TAFPNE
TAF
KPNE 281731Z 2818/2918 29016G23KT P6SM SCT040 BKN100
      TEMPO 2820/2824 -SHRA BKN035
     FM290000 30012KT P6SM SCT045 BKN120
     FM290400 31008KT P6SM SCT200
     FM291500 31006KT P6SM SCT050=



000
FTUS41 KPHI 281700
TAFABE
TAF
KABE 281731Z 2818/2918 27013G23KT P6SM SCT035 BKN045
      TEMPO 2819/2823 -SHRA BKN035
     FM290000 28010KT P6SM SCT040 BKN100
     FM290400 30005KT P6SM SCT200
     FM291500 30005KT P6SM SCT050=



000
FTUS41 KPHI 281700
TAFRDG
TAF
KRDG 281731Z 2818/2918 28015G23KT P6SM SCT040 BKN050
      TEMPO 2819/2823 -SHRA BKN035
     FM290000 30010KT P6SM SCT045 BKN100
     FM290400 30003KT P6SM SCT200
     FM291500 31006KT P6SM SCT050=



000
FTUS41 KPHI 281700
TAFMIV
TAF
KMIV 281731Z 2818/2918 26014G22KT P6SM SCT040 BKN120
     FM282300 27010KT P6SM SCT150
     FM290400 30005KT P6SM SCT200
     FM291500 31005KT P6SM BKN100=



000
FTUS41 KPHI 281500 AAA
TAFRDG
TAF AMD
KRDG 281500Z 2815/2912 26011G18KT P6SM SCT026 BKN040
     FM281700 28014G24KT P6SM BKN035
     FM290000 30010KT P6SM SCT200
     FM290400 29003KT P6SM SCT200=



000
FTUS41 KPHI 281400 AAA
TAFILG
TAF AMD
KILG 281458Z 2815/2912 26016G20KT P6SM SCT030 BKN040
     FM281800 27018G28KT P6SM BKN040
     FM290000 30012G20KT P6SM SCT200
     FM290300 30008KT P6SM SCT200=



000
FTUS41 KPHI 281400 AAB
TAFPHL
TAF AMD
KPHL 281458Z 2815/2918 28012G20KT P6SM SCT025 BKN035
     FM281800 28018G28KT P6SM BKN040
     FM290000 29012G22KT P6SM SCT045
     FM290400 31008KT P6SM SCT200=



000
FTUS41 KPHI 281400 AAB
TAFTTN
TAF AMD
KTTN 281458Z 2815/2912 27010G18KT P6SM SCT028 BKN035
      TEMPO 2815/2817 BKN028
     FM281700 30014G24KT P6SM BKN035
     FM290000 30010KT P6SM SCT200
     FM290700 31004KT P6SM SCT200=



000
FTUS41 KPHI 281400 AAA
TAFABE
TAF AMD
KABE 281458Z 2815/2912 26008KT P6SM SCT025 BKN040
     FM281700 28013G23KT P6SM BKN035
     FM290000 28010KT P6SM SCT200
     FM290400 30004KT P6SM SCT200=



000
FTUS41 KPHI 281300 AAA
TAFPHL
TAF AMD
KPHL 281302Z 2813/2918 27012KT P6SM FEW020 SCT150
     FM281400 27014G22KT P6SM SCT040
     FM281800 27018G28KT P6SM BKN040
     FM290000 29012G22KT P6SM SCT045
     FM290400 31008KT P6SM SCT200=



000
FTUS41 KPHI 281300 AAA
TAFPNE
TAF AMD
KPNE 281301Z 2813/2912 27008KT P6SM FEW015
      TEMPO 2813/2815 BKN015
     FM281500 27019G26KT P6SM BKN040
     FM290000 29012KT P6SM SCT045
     FM290400 31008KT P6SM SCT200=



000
FTUS41 KPHI 281200 AAA
TAFTTN
TAF AMD
KTTN 281253Z 2813/2912 24008KT P6SM SCT009 BKN015
      TEMPO 2813/2815 BKN009
     FM281500 30014G24KT P6SM BKN035
     FM290000 30010KT P6SM SCT200
     FM290700 31004KT P6SM SCT200=



000
FTUS41 KPHI 281200 CCA
TAFABE
TAF COR
KABE 281242Z 2812/2912 24008KT P6SM SCT009 BKN018
      TEMPO 2813/2815 BKN009 BKN018
     FM281500 28013G23KT P6SM BKN035
     FM290000 28010KT P6SM SCT200
     FM290400 30004KT P6SM SCT200=



000
FTUS41 KPHI 281200 CCA
TAFRDG
TAF COR
KRDG 281242Z 2812/2912 26006KT P6SM BKN018 OVC035
      TEMPO 2813/2815 SCT018 BKN035
     FM281500 28014G24KT P6SM BKN035
     FM290000 30010KT P6SM SCT200
     FM290400 29003KT P6SM SCT200=



000
FTUS41 KPHI 281200 AAA
TAFACY
TAF AMD
KACY 281229Z 2812/2912 23010KT P6SM FEW120
     FM281500 26016G25KT P6SM BKN040
     FM290000 29012KT P6SM SCT200
     FM290700 29006KT P6SM SCT200=



000
FTUS41 KPHI 281200 AAA
TAFMIV
TAF AMD
KMIV 281228Z 2812/2912 26010KT P6SM FEW120
     FM281500 26014G24KT P6SM BKN040
     FM282300 27010KT P6SM SCT200
     FM290400 29005KT P6SM SCT200=



000
FTUS41 KPHI 281100
TAFMIV
TAF
KMIV 281122Z 2812/2912 VRB03KT 6SM BR SCT025
      TEMPO 2812/2814 BKN015
     FM281500 26014G24KT P6SM BKN040
     FM282300 27010KT P6SM SCT200
     FM290400 29005KT P6SM SCT200=



000
FTUS41 KPHI 281100
TAFACY
TAF
KACY 281122Z 2812/2912 21006KT P6SM SCT030
      TEMPO 2812/2814 6SM BR BKN015
     FM281500 26016G25KT P6SM BKN040
     FM290000 29012KT P6SM SCT200
     FM290700 29006KT P6SM SCT200=



000
FTUS41 KPHI 281100
TAFILG
TAF
KILG 281122Z 2812/2912 VRB03KT P6SM FEW050 SCT150
     FM281400 28016G24KT P6SM SCT040
     FM281800 27018G28KT P6SM BKN040
     FM290000 30012G20KT P6SM SCT200
     FM290300 30008KT P6SM SCT200=



000
FTUS41 KPHI 281100
TAFPNE
TAF
KPNE 281122Z 2812/2912 24004KT P6SM FEW015
      TEMPO 2812/2813 BKN015
     FM281400 27019G26KT P6SM BKN040
     FM290000 29012KT P6SM SCT045
     FM290400 31008KT P6SM SCT200=



000
FTUS41 KPHI 281100
TAFABE
TAF
KABE 281122Z 2812/2912 26005KT P6SM OVC015
      TEMPO 2812/2814 OVC009
     FM281400 28013G23KT P6SM BKN035
     FM290000 28010KT P6SM SCT200
     FM290400 30004KT P6SM SCT200=



000
FTUS41 KPHI 281100
TAFPHL
TAF
KPHL 281122Z 2812/2918 21008KT P6SM FEW050 SCT150
     FM281400 25014G22KT P6SM SCT040
     FM281800 27018G28KT P6SM BKN040
     FM290000 29012G22KT P6SM SCT045
     FM290400 31008KT P6SM SCT200=



000
FTUS41 KPHI 281100
TAFTTN
TAF
KTTN 281122Z 2812/2912 19004KT P6SM BKN015
      TEMPO 2812/2813 BKN006
     FM281400 30014G24KT P6SM BKN035
     FM290000 30010KT P6SM SCT200
     FM290700 31004KT P6SM SCT200=



000
FTUS41 KPHI 281100
TAFRDG
TAF
KRDG 281122Z 2812/2912 VRB04KT P6SM OVC012
      TEMPO 2812/2813 OVC009
     FM281400 28014G24KT P6SM BKN035
     FM290000 30010KT P6SM SCT200
     FM290400 29003KT P6SM SCT200=



000
FTUS41 KPHI 281000 AAC
TAFACY
TAF AMD
KACY 281020Z 2810/2906 21003KT P6SM SCT030
     FM281300 26016G25KT P6SM BKN040
     FM282300 29008KT P6SM SCT200=



000
FTUS41 KPHI 281000 AAB
TAFTTN
TAF AMD
KTTN 281019Z 2810/2906 VRB04KT P6SM FEW020
      TEMPO 2810/2812 BKN015
     FM281300 30014G24KT P6SM BKN035
     FM282300 33006KT P6SM SCT200=



000
FTUS41 KPHI 281000 AAB
TAFILG
TAF AMD
KILG 281018Z 2810/2906 VRB02KT P6SM SCT050
     FM281300 28016G24KT P6SM BKN040
     FM282300 30008KT P6SM SCT200=



000
FTUS41 KPHI 281000 AAD
TAFPHL
TAF AMD
KPHL 281017Z 2810/2912 21006KT P6SM SCT050
     FM281300 27019G26KT P6SM BKN040
     FM282200 29012KT P6SM SCT045
     FM290600 31007KT P6SM SCT200=



    US Dept of Commerce
    National Oceanic and Atmospheric Administration
    National Weather Service
    1325 East West Highway
    Silver Spring, MD 20910
    Page Author: NWS Internet Services Team
Disclaimer
Information Quality
Credits
Glossary
Privacy Policy
Freedom of Information Act (FOIA)
About Us
Career Opportunities